sensor_id;sensor_type;location;lat;lon;timestamp;P1;durP1;ratioP1;P2;durP2;ratioP2
7899;SDS011;3995;50.856;4.404;2022-07-29T00:00:49;3.57;;;1.90;;
7899;SDS011;3995;50.856;4.404;2022-07-29T00:03:16;9.43;;;1.90;;
7899;SDS011;3995;50.856;4.404;2022-07-29T00:05:43;4.87;;;1.93;;
7899;SDS011;3995;50.856;4.404;2022-07-29T00:08:10;4.07;;;1.77;;
7899;SDS011;3995;50.856;4.404;2022-07-29T00:10:37;6.50;;;1.83;;
7899;SDS011;3995;50.856;4.404;2022-07-29T00:13:06;3.30;;;1.67;;
7899;SDS011;3995;50.856;4.404;2022-07-29T00:15:33;4.80;;;1.70;;
7899;SDS011;3995;50.856;4.404;2022-07-29T00:18:00;5.67;;;2.00;;
7899;SDS011;3995;50.856;4.404;2022-07-29T00:20:27;2.67;;;1.80;;
7899;SDS011;3995;50.856;4.404;2022-07-29T00:22:54;3.37;;;1.43;;
7899;SDS011;3995;50.856;4.404;2022-07-29T00:25:21;4.40;;;1.70;;
7899;SDS011;3995;50.856;4.404;2022-07-29T00:27:48;6.33;;;2.13;;
7899;SDS011;3995;50.856;4.404;2022-07-29T00:30:17;7.27;;;1.80;;
7899;SDS011;3995;50.856;4.404;2022-07-29T00:32:45;3.00;;;2.10;;
7899;SDS011;3995;50.856;4.404;2022-07-29T00:35:12;8.73;;;1.67;;
7899;SDS011;3995;50.856;4.404;2022-07-29T00:37:57;9.83;;;2.33;;
7899;SDS011;3995;50.856;4.404;2022-07-29T00:40:24;4.37;;;1.73;;
7899;SDS011;3995;50.856;4.404;2022-07-29T00:42:51;5.50;;;2.10;;
7899;SDS011;3995;50.856;4.404;2022-07-29T00:45:20;3.50;;;1.80;;
7899;SDS011;3995;50.856;4.404;2022-07-29T00:47:48;7.20;;;1.73;;
7899;SDS011;3995;50.856;4.404;2022-07-29T00:50:15;3.43;;;1.90;;
7899;SDS011;3995;50.856;4.404;2022-07-29T00:52:42;2.93;;;1.93;;
7899;SDS011;3995;50.856;4.404;2022-07-29T00:55:10;2.60;;;1.73;;
7899;SDS011;3995;50.856;4.404;2022-07-29T00:57:39;8.20;;;2.20;;
7899;SDS011;3995;50.856;4.404;2022-07-29T01:00:08;8.10;;;1.87;;
7899;SDS011;3995;50.856;4.404;2022-07-29T01:02:39;10.17;;;2.23;;
7899;SDS011;3995;50.856;4.404;2022-07-29T01:05:07;3.10;;;1.90;;
7899;SDS011;3995;50.856;4.404;2022-07-29T01:07:34;10.80;;;1.57;;
7899;SDS011;3995;50.856;4.404;2022-07-29T01:10:03;3.73;;;1.63;;
7899;SDS011;3995;50.856;4.404;2022-07-29T01:12:32;6.00;;;2.50;;
7899;SDS011;3995;50.856;4.404;2022-07-29T01:15:01;6.13;;;1.90;;
7899;SDS011;3995;50.856;4.404;2022-07-29T01:17:32;5.40;;;2.20;;
7899;SDS011;3995;50.856;4.404;2022-07-29T01:20:05;2.83;;;1.50;;
7899;SDS011;3995;50.856;4.404;2022-07-29T01:22:42;3.00;;;1.63;;
7899;SDS011;3995;50.856;4.404;2022-07-29T01:25:30;6.30;;;1.87;;
7899;SDS011;3995;50.856;4.404;2022-07-29T01:28:20;3.37;;;1.77;;
7899;SDS011;3995;50.856;4.404;2022-07-29T01:31:10;2.43;;;1.60;;
7899;SDS011;3995;50.856;4.404;2022-07-29T01:33:41;12.77;;;2.60;;
7899;SDS011;3995;50.856;4.404;2022-07-29T01:36:18;3.83;;;2.30;;
7899;SDS011;3995;50.856;4.404;2022-07-29T01:38:52;7.80;;;1.77;;
7899;SDS011;3995;50.856;4.404;2022-07-29T01:41:24;7.10;;;1.33;;
7899;SDS011;3995;50.856;4.404;2022-07-29T01:43:57;3.40;;;1.50;;
7899;SDS011;3995;50.856;4.404;2022-07-29T01:46:31;3.97;;;1.80;;
7899;SDS011;3995;50.856;4.404;2022-07-29T01:49:02;3.10;;;1.60;;
7899;SDS011;3995;50.856;4.404;2022-07-29T01:51:36;3.63;;;1.97;;
7899;SDS011;3995;50.856;4.404;2022-07-29T01:54:08;17.20;;;2.10;;
7899;SDS011;3995;50.856;4.404;2022-07-29T01:56:40;5.50;;;2.37;;
7899;SDS011;3995;50.856;4.404;2022-07-29T01:59:10;2.43;;;1.47;;
7899;SDS011;3995;50.856;4.404;2022-07-29T02:01:39;2.77;;;1.43;;
7899;SDS011;3995;50.856;4.404;2022-07-29T02:04:09;3.77;;;1.53;;
7899;SDS011;3995;50.856;4.404;2022-07-29T02:06:37;8.37;;;2.50;;
7899;SDS011;3995;50.856;4.404;2022-07-29T02:09:07;4.70;;;1.57;;
7899;SDS011;3995;50.856;4.404;2022-07-29T02:11:36;5.63;;;1.70;;
7899;SDS011;3995;50.856;4.404;2022-07-29T02:14:05;8.63;;;1.70;;
7899;SDS011;3995;50.856;4.404;2022-07-29T02:16:35;8.53;;;2.20;;
7899;SDS011;3995;50.856;4.404;2022-07-29T02:19:07;4.90;;;1.70;;
7899;SDS011;3995;50.856;4.404;2022-07-29T02:21:35;3.77;;;1.60;;
7899;SDS011;3995;50.856;4.404;2022-07-29T02:24:04;9.13;;;2.23;;
7899;SDS011;3995;50.856;4.404;2022-07-29T02:26:32;4.00;;;2.20;;
7899;SDS011;3995;50.856;4.404;2022-07-29T02:29:00;8.90;;;1.93;;
7899;SDS011;3995;50.856;4.404;2022-07-29T02:31:29;3.73;;;1.80;;
7899;SDS011;3995;50.856;4.404;2022-07-29T02:34:00;3.40;;;1.60;;
7899;SDS011;3995;50.856;4.404;2022-07-29T02:36:28;3.37;;;2.00;;
7899;SDS011;3995;50.856;4.404;2022-07-29T02:38:57;4.97;;;1.70;;
7899;SDS011;3995;50.856;4.404;2022-07-29T02:41:27;4.70;;;2.27;;
7899;SDS011;3995;50.856;4.404;2022-07-29T02:43:58;3.43;;;1.50;;
7899;SDS011;3995;50.856;4.404;2022-07-29T02:46:31;9.93;;;2.07;;
7899;SDS011;3995;50.856;4.404;2022-07-29T02:49:04;6.30;;;2.20;;
7899;SDS011;3995;50.856;4.404;2022-07-29T02:51:40;4.70;;;2.00;;
7899;SDS011;3995;50.856;4.404;2022-07-29T02:54:10;3.00;;;1.90;;
7899;SDS011;3995;50.856;4.404;2022-07-29T02:56:46;3.80;;;1.70;;
7899;SDS011;3995;50.856;4.404;2022-07-29T02:59:17;3.33;;;1.97;;
7899;SDS011;3995;50.856;4.404;2022-07-29T03:01:48;2.80;;;1.60;;
7899;SDS011;3995;50.856;4.404;2022-07-29T03:04:19;2.60;;;1.27;;
7899;SDS011;3995;50.856;4.404;2022-07-29T03:06:49;4.37;;;1.97;;
7899;SDS011;3995;50.856;4.404;2022-07-29T03:09:18;9.20;;;1.83;;
7899;SDS011;3995;50.856;4.404;2022-07-29T03:11:46;3.93;;;2.00;;
7899;SDS011;3995;50.856;4.404;2022-07-29T03:14:14;4.90;;;1.87;;
7899;SDS011;3995;50.856;4.404;2022-07-29T03:16:42;4.33;;;1.80;;
7899;SDS011;3995;50.856;4.404;2022-07-29T03:19:10;4.43;;;2.13;;
7899;SDS011;3995;50.856;4.404;2022-07-29T03:21:39;6.47;;;2.40;;
7899;SDS011;3995;50.856;4.404;2022-07-29T03:24:06;9.07;;;1.90;;
7899;SDS011;3995;50.856;4.404;2022-07-29T03:26:33;3.67;;;1.70;;
7899;SDS011;3995;50.856;4.404;2022-07-29T03:29:00;7.80;;;1.80;;
7899;SDS011;3995;50.856;4.404;2022-07-29T03:31:27;6.40;;;2.20;;
7899;SDS011;3995;50.856;4.404;2022-07-29T03:33:54;2.80;;;1.43;;
7899;SDS011;3995;50.856;4.404;2022-07-29T03:36:22;4.07;;;1.87;;
7899;SDS011;3995;50.856;4.404;2022-07-29T03:38:51;2.87;;;1.77;;
7899;SDS011;3995;50.856;4.404;2022-07-29T03:41:19;2.97;;;1.90;;
7899;SDS011;3995;50.856;4.404;2022-07-29T03:43:49;2.77;;;1.70;;
7899;SDS011;3995;50.856;4.404;2022-07-29T03:46:17;3.80;;;1.70;;
7899;SDS011;3995;50.856;4.404;2022-07-29T03:48:48;7.20;;;2.40;;
7899;SDS011;3995;50.856;4.404;2022-07-29T03:51:19;6.47;;;1.90;;
7899;SDS011;3995;50.856;4.404;2022-07-29T03:53:47;4.33;;;1.80;;
7899;SDS011;3995;50.856;4.404;2022-07-29T03:56:16;3.20;;;1.73;;
7899;SDS011;3995;50.856;4.404;2022-07-29T03:58:46;6.73;;;2.67;;
7899;SDS011;3995;50.856;4.404;2022-07-29T04:01:15;4.40;;;1.87;;
7899;SDS011;3995;50.856;4.404;2022-07-29T04:03:43;4.03;;;1.80;;
7899;SDS011;3995;50.856;4.404;2022-07-29T04:06:10;3.30;;;2.03;;
7899;SDS011;3995;50.856;4.404;2022-07-29T04:08:38;4.93;;;1.87;;
7899;SDS011;3995;50.856;4.404;2022-07-29T04:11:06;5.90;;;2.57;;
7899;SDS011;3995;50.856;4.404;2022-07-29T04:13:35;3.23;;;1.90;;
7899;SDS011;3995;50.856;4.404;2022-07-29T04:16:02;4.80;;;2.57;;
7899;SDS011;3995;50.856;4.404;2022-07-29T04:18:29;4.90;;;2.30;;
7899;SDS011;3995;50.856;4.404;2022-07-29T04:20:56;3.53;;;2.33;;
7899;SDS011;3995;50.856;4.404;2022-07-29T04:23:25;15.77;;;3.70;;
7899;SDS011;3995;50.856;4.404;2022-07-29T04:25:53;4.43;;;2.13;;
7899;SDS011;3995;50.856;4.404;2022-07-29T04:28:20;7.87;;;2.10;;
7899;SDS011;3995;50.856;4.404;2022-07-29T04:30:49;7.10;;;2.40;;
7899;SDS011;3995;50.856;4.404;2022-07-29T04:33:16;3.40;;;2.40;;
7899;SDS011;3995;50.856;4.404;2022-07-29T04:35:44;7.40;;;2.10;;
7899;SDS011;3995;50.856;4.404;2022-07-29T04:38:11;6.33;;;2.43;;
7899;SDS011;3995;50.856;4.404;2022-07-29T04:40:38;5.60;;;2.60;;
7899;SDS011;3995;50.856;4.404;2022-07-29T04:43:06;2.53;;;1.80;;
7899;SDS011;3995;50.856;4.404;2022-07-29T04:45:33;5.07;;;2.23;;
7899;SDS011;3995;50.856;4.404;2022-07-29T04:48:02;6.13;;;2.53;;
7899;SDS011;3995;50.856;4.404;2022-07-29T04:50:29;8.33;;;2.33;;
7899;SDS011;3995;50.856;4.404;2022-07-29T04:52:56;4.27;;;2.77;;
7899;SDS011;3995;50.856;4.404;2022-07-29T04:55:23;7.47;;;2.80;;
7899;SDS011;3995;50.856;4.404;2022-07-29T04:57:51;5.83;;;2.60;;
7899;SDS011;3995;50.856;4.404;2022-07-29T05:00:18;6.50;;;2.47;;
7899;SDS011;3995;50.856;4.404;2022-07-29T05:02:45;7.00;;;2.93;;
7899;SDS011;3995;50.856;4.404;2022-07-29T05:05:14;8.30;;;3.00;;
7899;SDS011;3995;50.856;4.404;2022-07-29T05:07:41;7.13;;;2.47;;
7899;SDS011;3995;50.856;4.404;2022-07-29T05:10:09;10.03;;;2.93;;
7899;SDS011;3995;50.856;4.404;2022-07-29T05:12:36;12.73;;;3.07;;
7899;SDS011;3995;50.856;4.404;2022-07-29T05:15:04;9.93;;;2.97;;
7899;SDS011;3995;50.856;4.404;2022-07-29T05:17:32;7.67;;;2.83;;
7899;SDS011;3995;50.856;4.404;2022-07-29T05:19:59;4.87;;;2.70;;
7899;SDS011;3995;50.856;4.404;2022-07-29T05:22:28;13.00;;;3.20;;
7899;SDS011;3995;50.856;4.404;2022-07-29T05:24:55;10.07;;;3.33;;
7899;SDS011;3995;50.856;4.404;2022-07-29T05:27:22;8.17;;;2.77;;
7899;SDS011;3995;50.856;4.404;2022-07-29T05:29:50;18.17;;;4.30;;
7899;SDS011;3995;50.856;4.404;2022-07-29T05:32:16;5.73;;;2.70;;
7899;SDS011;3995;50.856;4.404;2022-07-29T05:34:46;11.50;;;3.80;;
7899;SDS011;3995;50.856;4.404;2022-07-29T05:37:13;6.33;;;2.27;;
7899;SDS011;3995;50.856;4.404;2022-07-29T05:39:42;6.53;;;2.97;;
7899;SDS011;3995;50.856;4.404;2022-07-29T05:42:09;6.10;;;2.70;;
7899;SDS011;3995;50.856;4.404;2022-07-29T05:44:36;12.20;;;2.70;;
7899;SDS011;3995;50.856;4.404;2022-07-29T05:47:03;8.63;;;3.10;;
7899;SDS011;3995;50.856;4.404;2022-07-29T05:49:31;5.13;;;2.37;;
7899;SDS011;3995;50.856;4.404;2022-07-29T05:51:58;4.93;;;2.37;;
7899;SDS011;3995;50.856;4.404;2022-07-29T05:54:25;4.90;;;2.63;;
7899;SDS011;3995;50.856;4.404;2022-07-29T05:56:55;6.73;;;2.60;;
7899;SDS011;3995;50.856;4.404;2022-07-29T05:59:22;5.53;;;2.10;;
7899;SDS011;3995;50.856;4.404;2022-07-29T06:01:49;5.53;;;2.50;;
7899;SDS011;3995;50.856;4.404;2022-07-29T06:04:16;4.73;;;2.77;;
7899;SDS011;3995;50.856;4.404;2022-07-29T06:06:43;4.50;;;2.67;;
7899;SDS011;3995;50.856;4.404;2022-07-29T06:09:10;11.67;;;2.60;;
7899;SDS011;3995;50.856;4.404;2022-07-29T06:11:37;3.83;;;2.50;;
7899;SDS011;3995;50.856;4.404;2022-07-29T06:14:06;6.43;;;2.63;;
7899;SDS011;3995;50.856;4.404;2022-07-29T06:16:33;7.30;;;3.20;;
7899;SDS011;3995;50.856;4.404;2022-07-29T06:19:00;8.73;;;3.43;;
7899;SDS011;3995;50.856;4.404;2022-07-29T06:21:27;4.00;;;2.53;;
7899;SDS011;3995;50.856;4.404;2022-07-29T06:23:54;4.10;;;2.90;;
7899;SDS011;3995;50.856;4.404;2022-07-29T06:26:21;5.43;;;3.40;;
7899;SDS011;3995;50.856;4.404;2022-07-29T06:28:49;8.33;;;2.67;;
7899;SDS011;3995;50.856;4.404;2022-07-29T06:31:17;6.30;;;3.00;;
7899;SDS011;3995;50.856;4.404;2022-07-29T06:33:44;3.73;;;2.73;;
7899;SDS011;3995;50.856;4.404;2022-07-29T06:36:12;5.73;;;3.10;;
7899;SDS011;3995;50.856;4.404;2022-07-29T06:38:39;4.97;;;2.77;;
7899;SDS011;3995;50.856;4.404;2022-07-29T06:41:07;4.90;;;2.50;;
7899;SDS011;3995;50.856;4.404;2022-07-29T06:43:38;6.17;;;2.83;;
7899;SDS011;3995;50.856;4.404;2022-07-29T06:46:07;4.73;;;2.60;;
7899;SDS011;3995;50.856;4.404;2022-07-29T06:48:36;5.80;;;3.70;;
7899;SDS011;3995;50.856;4.404;2022-07-29T06:51:05;3.60;;;2.90;;
7899;SDS011;3995;50.856;4.404;2022-07-29T06:53:33;6.93;;;3.53;;
7899;SDS011;3995;50.856;4.404;2022-07-29T06:56:01;9.70;;;2.70;;
7899;SDS011;3995;50.856;4.404;2022-07-29T06:58:30;7.83;;;3.17;;
7899;SDS011;3995;50.856;4.404;2022-07-29T07:00:58;3.37;;;2.30;;
7899;SDS011;3995;50.856;4.404;2022-07-29T07:03:28;4.27;;;2.67;;
7899;SDS011;3995;50.856;4.404;2022-07-29T07:05:57;8.33;;;3.13;;
7899;SDS011;3995;50.856;4.404;2022-07-29T07:08:24;8.13;;;3.07;;
7899;SDS011;3995;50.856;4.404;2022-07-29T07:10:52;11.27;;;3.60;;
7899;SDS011;3995;50.856;4.404;2022-07-29T07:13:20;7.90;;;3.50;;
7899;SDS011;3995;50.856;4.404;2022-07-29T07:15:47;4.40;;;3.23;;
7899;SDS011;3995;50.856;4.404;2022-07-29T07:18:15;6.60;;;3.40;;
7899;SDS011;3995;50.856;4.404;2022-07-29T07:20:42;9.97;;;3.40;;
7899;SDS011;3995;50.856;4.404;2022-07-29T07:23:12;11.77;;;3.53;;
7899;SDS011;3995;50.856;4.404;2022-07-29T07:25:39;4.13;;;2.93;;
7899;SDS011;3995;50.856;4.404;2022-07-29T07:28:07;7.20;;;2.70;;
7899;SDS011;3995;50.856;4.404;2022-07-29T07:30:34;8.27;;;3.20;;
7899;SDS011;3995;50.856;4.404;2022-07-29T07:33:01;7.73;;;3.30;;
7899;SDS011;3995;50.856;4.404;2022-07-29T07:35:29;6.63;;;2.93;;
7899;SDS011;3995;50.856;4.404;2022-07-29T07:37:57;4.00;;;2.50;;
7899;SDS011;3995;50.856;4.404;2022-07-29T07:40:26;4.50;;;3.10;;
7899;SDS011;3995;50.856;4.404;2022-07-29T07:42:53;6.83;;;3.33;;
7899;SDS011;3995;50.856;4.404;2022-07-29T07:45:20;6.30;;;3.40;;
7899;SDS011;3995;50.856;4.404;2022-07-29T07:47:47;8.20;;;3.20;;
7899;SDS011;3995;50.856;4.404;2022-07-29T07:50:14;4.77;;;2.83;;
7899;SDS011;3995;50.856;4.404;2022-07-29T07:52:46;14.60;;;3.53;;
7899;SDS011;3995;50.856;4.404;2022-07-29T07:55:14;7.30;;;3.37;;
7899;SDS011;3995;50.856;4.404;2022-07-29T07:57:43;14.80;;;4.70;;
7899;SDS011;3995;50.856;4.404;2022-07-29T08:00:11;12.30;;;3.43;;
7899;SDS011;3995;50.856;4.404;2022-07-29T08:02:39;4.87;;;3.43;;
7899;SDS011;3995;50.856;4.404;2022-07-29T08:05:08;9.97;;;3.33;;
7899;SDS011;3995;50.856;4.404;2022-07-29T08:07:36;16.27;;;3.30;;
7899;SDS011;3995;50.856;4.404;2022-07-29T08:10:04;7.30;;;3.17;;
7899;SDS011;3995;50.856;4.404;2022-07-29T08:12:31;7.20;;;3.20;;
7899;SDS011;3995;50.856;4.404;2022-07-29T08:15:00;7.27;;;3.27;;
7899;SDS011;3995;50.856;4.404;2022-07-29T08:17:28;8.80;;;2.93;;
7899;SDS011;3995;50.856;4.404;2022-07-29T08:19:55;8.23;;;3.40;;
7899;SDS011;3995;50.856;4.404;2022-07-29T08:22:22;9.27;;;3.20;;
7899;SDS011;3995;50.856;4.404;2022-07-29T08:24:50;3.93;;;2.30;;
7899;SDS011;3995;50.856;4.404;2022-07-29T08:27:21;3.70;;;3.00;;
7899;SDS011;3995;50.856;4.404;2022-07-29T08:29:48;14.30;;;2.53;;
7899;SDS011;3995;50.856;4.404;2022-07-29T08:32:18;4.20;;;2.80;;
7899;SDS011;3995;50.856;4.404;2022-07-29T08:34:45;5.77;;;2.50;;
7899;SDS011;3995;50.856;4.404;2022-07-29T08:37:12;8.33;;;2.80;;
7899;SDS011;3995;50.856;4.404;2022-07-29T08:39:39;5.17;;;3.10;;
7899;SDS011;3995;50.856;4.404;2022-07-29T08:42:06;4.30;;;2.70;;
7899;SDS011;3995;50.856;4.404;2022-07-29T08:44:34;5.80;;;2.73;;
7899;SDS011;3995;50.856;4.404;2022-07-29T08:47:02;5.90;;;2.90;;
7899;SDS011;3995;50.856;4.404;2022-07-29T08:49:32;3.13;;;2.40;;
7899;SDS011;3995;50.856;4.404;2022-07-29T08:52:00;16.23;;;2.63;;
7899;SDS011;3995;50.856;4.404;2022-07-29T08:54:27;9.70;;;2.67;;
7899;SDS011;3995;50.856;4.404;2022-07-29T08:56:55;7.10;;;2.40;;
7899;SDS011;3995;50.856;4.404;2022-07-29T08:59:24;4.63;;;2.70;;
7899;SDS011;3995;50.856;4.404;2022-07-29T09:01:53;8.00;;;2.37;;
7899;SDS011;3995;50.856;4.404;2022-07-29T09:04:22;3.90;;;2.80;;
7899;SDS011;3995;50.856;4.404;2022-07-29T09:06:54;6.10;;;2.40;;
7899;SDS011;3995;50.856;4.404;2022-07-29T09:09:24;6.00;;;2.13;;
7899;SDS011;3995;50.856;4.404;2022-07-29T09:11:52;4.70;;;2.07;;
7899;SDS011;3995;50.856;4.404;2022-07-29T09:14:19;7.57;;;2.27;;
7899;SDS011;3995;50.856;4.404;2022-07-29T09:16:47;4.90;;;1.90;;
7899;SDS011;3995;50.856;4.404;2022-07-29T09:19:21;5.13;;;1.97;;
7899;SDS011;3995;50.856;4.404;2022-07-29T09:21:49;2.60;;;2.00;;
7899;SDS011;3995;50.856;4.404;2022-07-29T09:24:43;6.50;;;2.03;;
7899;SDS011;3995;50.856;4.404;2022-07-29T09:27:21;9.57;;;2.10;;
7899;SDS011;3995;50.856;4.404;2022-07-29T09:30:00;3.53;;;1.93;;
7899;SDS011;3995;50.856;4.404;2022-07-29T09:32:27;2.73;;;1.80;;
7899;SDS011;3995;50.856;4.404;2022-07-29T09:37:41;10.70;;;2.37;;
7899;SDS011;3995;50.856;4.404;2022-07-29T09:40:12;4.43;;;1.47;;
7899;SDS011;3995;50.856;4.404;2022-07-29T09:42:41;8.60;;;2.97;;
7899;SDS011;3995;50.856;4.404;2022-07-29T09:45:09;5.83;;;1.70;;
7899;SDS011;3995;50.856;4.404;2022-07-29T09:47:40;8.10;;;2.10;;
7899;SDS011;3995;50.856;4.404;2022-07-29T09:50:10;2.40;;;1.60;;
7899;SDS011;3995;50.856;4.404;2022-07-29T09:52:44;3.10;;;1.80;;
7899;SDS011;3995;50.856;4.404;2022-07-29T09:55:14;7.03;;;1.60;;
7899;SDS011;3995;50.856;4.404;2022-07-29T09:57:42;6.43;;;2.37;;
7899;SDS011;3995;50.856;4.404;2022-07-29T10:00:10;3.17;;;2.00;;
7899;SDS011;3995;50.856;4.404;2022-07-29T10:02:40;7.60;;;1.83;;
7899;SDS011;3995;50.856;4.404;2022-07-29T10:05:16;5.17;;;2.13;;
7899;SDS011;3995;50.856;4.404;2022-07-29T10:07:45;4.10;;;2.00;;
7899;SDS011;3995;50.856;4.404;2022-07-29T10:10:19;3.03;;;2.00;;
7899;SDS011;3995;50.856;4.404;2022-07-29T10:12:48;8.23;;;1.87;;
7899;SDS011;3995;50.856;4.404;2022-07-29T10:15:20;2.87;;;2.00;;
7899;SDS011;3995;50.856;4.404;2022-07-29T10:17:49;4.83;;;1.80;;
7899;SDS011;3995;50.856;4.404;2022-07-29T10:20:16;8.10;;;1.90;;
7899;SDS011;3995;50.856;4.404;2022-07-29T10:22:44;8.80;;;2.10;;
7899;SDS011;3995;50.856;4.404;2022-07-29T10:25:13;10.20;;;2.57;;
7899;SDS011;3995;50.856;4.404;2022-07-29T10:27:42;3.17;;;1.70;;
7899;SDS011;3995;50.856;4.404;2022-07-29T10:30:11;6.37;;;2.10;;
7899;SDS011;3995;50.856;4.404;2022-07-29T10:32:43;12.23;;;2.23;;
7899;SDS011;3995;50.856;4.404;2022-07-29T10:35:23;4.50;;;2.40;;
7899;SDS011;3995;50.856;4.404;2022-07-29T10:38:10;4.77;;;2.37;;
7899;SDS011;3995;50.856;4.404;2022-07-29T10:40:54;3.60;;;1.80;;
7899;SDS011;3995;50.856;4.404;2022-07-29T10:43:48;5.97;;;1.90;;
7899;SDS011;3995;50.856;4.404;2022-07-29T10:46:17;4.13;;;1.63;;
7899;SDS011;3995;50.856;4.404;2022-07-29T10:54:37;3.53;;;2.00;;
7899;SDS011;3995;50.856;4.404;2022-07-29T10:57:17;4.73;;;1.70;;
7899;SDS011;3995;50.856;4.404;2022-07-29T10:59:48;3.77;;;1.90;;
7899;SDS011;3995;50.856;4.404;2022-07-29T11:05:09;5.90;;;2.00;;
7899;SDS011;3995;50.856;4.404;2022-07-29T11:07:38;3.37;;;1.70;;
7899;SDS011;3995;50.856;4.404;2022-07-29T11:10:26;8.47;;;2.73;;
7899;SDS011;3995;50.856;4.404;2022-07-29T11:12:53;3.97;;;2.13;;
7899;SDS011;3995;50.856;4.404;2022-07-29T11:15:22;15.43;;;2.70;;
7899;SDS011;3995;50.856;4.404;2022-07-29T11:18:05;3.97;;;2.03;;
7899;SDS011;3995;50.856;4.404;2022-07-29T11:20:34;6.70;;;2.10;;
7899;SDS011;3995;50.856;4.404;2022-07-29T11:26:13;6.60;;;2.97;;
7899;SDS011;3995;50.856;4.404;2022-07-29T11:28:48;5.97;;;2.43;;
7899;SDS011;3995;50.856;4.404;2022-07-29T11:31:19;5.20;;;2.47;;
7899;SDS011;3995;50.856;4.404;2022-07-29T11:34:18;3.57;;;2.30;;
7899;SDS011;3995;50.856;4.404;2022-07-29T11:39:43;4.80;;;2.60;;
7899;SDS011;3995;50.856;4.404;2022-07-29T11:45:04;8.10;;;2.00;;
7899;SDS011;3995;50.856;4.404;2022-07-29T11:47:34;4.20;;;1.80;;
7899;SDS011;3995;50.856;4.404;2022-07-29T11:50:04;10.47;;;2.73;;
7899;SDS011;3995;50.856;4.404;2022-07-29T11:52:32;7.00;;;2.47;;
7899;SDS011;3995;50.856;4.404;2022-07-29T11:55:03;5.13;;;2.47;;
7899;SDS011;3995;50.856;4.404;2022-07-29T11:57:33;5.10;;;2.47;;
7899;SDS011;3995;50.856;4.404;2022-07-29T12:00:01;4.23;;;2.47;;
7899;SDS011;3995;50.856;4.404;2022-07-29T12:02:39;4.17;;;2.23;;
7899;SDS011;3995;50.856;4.404;2022-07-29T12:05:07;5.57;;;3.03;;
7899;SDS011;3995;50.856;4.404;2022-07-29T12:07:36;4.93;;;2.77;;
7899;SDS011;3995;50.856;4.404;2022-07-29T12:10:04;24.97;;;5.87;;
7899;SDS011;3995;50.856;4.404;2022-07-29T12:12:32;9.13;;;2.90;;
7899;SDS011;3995;50.856;4.404;2022-07-29T12:15:10;4.13;;;2.67;;
7899;SDS011;3995;50.856;4.404;2022-07-29T12:17:43;6.60;;;2.90;;
7899;SDS011;3995;50.856;4.404;2022-07-29T12:20:11;5.90;;;2.07;;
7899;SDS011;3995;50.856;4.404;2022-07-29T12:22:42;8.83;;;2.13;;
7899;SDS011;3995;50.856;4.404;2022-07-29T12:25:10;6.17;;;2.50;;
7899;SDS011;3995;50.856;4.404;2022-07-29T12:27:40;4.77;;;2.50;;
7899;SDS011;3995;50.856;4.404;2022-07-29T12:30:08;5.30;;;2.70;;
7899;SDS011;3995;50.856;4.404;2022-07-29T12:32:39;3.27;;;2.53;;
7899;SDS011;3995;50.856;4.404;2022-07-29T12:35:09;5.83;;;2.60;;
7899;SDS011;3995;50.856;4.404;2022-07-29T12:37:38;15.00;;;3.43;;
7899;SDS011;3995;50.856;4.404;2022-07-29T12:40:07;4.13;;;2.10;;
7899;SDS011;3995;50.856;4.404;2022-07-29T12:42:36;2.97;;;1.70;;
7899;SDS011;3995;50.856;4.404;2022-07-29T12:45:03;2.73;;;2.23;;
7899;SDS011;3995;50.856;4.404;2022-07-29T12:47:31;6.30;;;2.87;;
7899;SDS011;3995;50.856;4.404;2022-07-29T12:50:10;5.67;;;2.30;;
7899;SDS011;3995;50.856;4.404;2022-07-29T12:52:39;5.63;;;2.33;;
7899;SDS011;3995;50.856;4.404;2022-07-29T12:55:06;2.30;;;1.93;;
7899;SDS011;3995;50.856;4.404;2022-07-29T12:57:44;5.67;;;2.17;;
7899;SDS011;3995;50.856;4.404;2022-07-29T13:00:13;7.67;;;2.10;;
7899;SDS011;3995;50.856;4.404;2022-07-29T13:02:41;5.83;;;2.10;;
7899;SDS011;3995;50.856;4.404;2022-07-29T13:05:10;4.90;;;2.33;;
7899;SDS011;3995;50.856;4.404;2022-07-29T13:07:38;4.97;;;2.37;;
7899;SDS011;3995;50.856;4.404;2022-07-29T13:10:09;5.70;;;2.30;;
7899;SDS011;3995;50.856;4.404;2022-07-29T13:12:39;5.50;;;2.30;;
7899;SDS011;3995;50.856;4.404;2022-07-29T13:15:21;5.87;;;2.03;;
7899;SDS011;3995;50.856;4.404;2022-07-29T13:17:49;3.10;;;1.80;;
7899;SDS011;3995;50.856;4.404;2022-07-29T13:20:18;3.40;;;1.90;;
7899;SDS011;3995;50.856;4.404;2022-07-29T13:22:49;3.97;;;1.70;;
7899;SDS011;3995;50.856;4.404;2022-07-29T13:25:23;9.93;;;2.40;;
7899;SDS011;3995;50.856;4.404;2022-07-29T13:27:51;3.67;;;1.43;;
7899;SDS011;3995;50.856;4.404;2022-07-29T13:30:19;6.40;;;2.20;;
7899;SDS011;3995;50.856;4.404;2022-07-29T13:32:47;3.63;;;2.00;;
7899;SDS011;3995;50.856;4.404;2022-07-29T13:35:15;8.87;;;2.00;;
7899;SDS011;3995;50.856;4.404;2022-07-29T13:37:44;9.13;;;2.30;;
7899;SDS011;3995;50.856;4.404;2022-07-29T13:40:12;9.90;;;2.70;;
7899;SDS011;3995;50.856;4.404;2022-07-29T13:42:40;5.40;;;2.53;;
7899;SDS011;3995;50.856;4.404;2022-07-29T13:45:07;10.17;;;2.20;;
7899;SDS011;3995;50.856;4.404;2022-07-29T13:47:36;10.67;;;2.00;;
7899;SDS011;3995;50.856;4.404;2022-07-29T13:50:04;4.33;;;1.90;;
7899;SDS011;3995;50.856;4.404;2022-07-29T13:52:32;7.30;;;2.03;;
7899;SDS011;3995;50.856;4.404;2022-07-29T13:55:01;3.43;;;1.73;;
7899;SDS011;3995;50.856;4.404;2022-07-29T13:57:29;5.67;;;1.87;;
7899;SDS011;3995;50.856;4.404;2022-07-29T13:59:57;3.93;;;2.00;;
7899;SDS011;3995;50.856;4.404;2022-07-29T14:02:24;2.80;;;1.63;;
7899;SDS011;3995;50.856;4.404;2022-07-29T14:04:51;3.30;;;1.67;;
7899;SDS011;3995;50.856;4.404;2022-07-29T14:07:19;9.27;;;2.00;;
7899;SDS011;3995;50.856;4.404;2022-07-29T14:09:46;4.30;;;1.77;;
7899;SDS011;3995;50.856;4.404;2022-07-29T14:12:15;5.00;;;2.00;;
7899;SDS011;3995;50.856;4.404;2022-07-29T14:14:42;4.33;;;1.80;;
7899;SDS011;3995;50.856;4.404;2022-07-29T14:17:09;3.97;;;1.90;;
7899;SDS011;3995;50.856;4.404;2022-07-29T14:19:36;4.83;;;1.60;;
7899;SDS011;3995;50.856;4.404;2022-07-29T14:22:04;4.10;;;1.77;;
7899;SDS011;3995;50.856;4.404;2022-07-29T14:24:31;1.90;;;1.20;;
7899;SDS011;3995;50.856;4.404;2022-07-29T14:26:59;5.40;;;1.90;;
7899;SDS011;3995;50.856;4.404;2022-07-29T14:29:28;4.00;;;1.77;;
7899;SDS011;3995;50.856;4.404;2022-07-29T14:31:55;2.60;;;1.43;;
7899;SDS011;3995;50.856;4.404;2022-07-29T14:34:23;9.70;;;2.33;;
7899;SDS011;3995;50.856;4.404;2022-07-29T14:36:50;11.73;;;2.40;;
7899;SDS011;3995;50.856;4.404;2022-07-29T14:39:20;16.87;;;2.33;;
7899;SDS011;3995;50.856;4.404;2022-07-29T14:41:48;4.30;;;1.57;;
7899;SDS011;3995;50.856;4.404;2022-07-29T14:44:16;4.27;;;1.57;;
7899;SDS011;3995;50.856;4.404;2022-07-29T14:46:45;15.63;;;1.93;;
7899;SDS011;3995;50.856;4.404;2022-07-29T14:49:11;2.50;;;1.53;;
7899;SDS011;3995;50.856;4.404;2022-07-29T14:51:39;10.53;;;2.27;;
7899;SDS011;3995;50.856;4.404;2022-07-29T14:54:06;6.60;;;1.77;;
7899;SDS011;3995;50.856;4.404;2022-07-29T14:56:33;4.30;;;1.70;;
7899;SDS011;3995;50.856;4.404;2022-07-29T14:59:00;4.73;;;1.50;;
7899;SDS011;3995;50.856;4.404;2022-07-29T15:01:28;6.70;;;1.70;;
7899;SDS011;3995;50.856;4.404;2022-07-29T15:03:57;7.80;;;2.00;;
7899;SDS011;3995;50.856;4.404;2022-07-29T15:06:24;6.87;;;1.57;;
7899;SDS011;3995;50.856;4.404;2022-07-29T15:08:51;4.47;;;1.80;;
7899;SDS011;3995;50.856;4.404;2022-07-29T15:11:18;5.03;;;1.50;;
7899;SDS011;3995;50.856;4.404;2022-07-29T15:13:45;3.97;;;2.07;;
7899;SDS011;3995;50.856;4.404;2022-07-29T15:16:12;5.20;;;1.83;;
7899;SDS011;3995;50.856;4.404;2022-07-29T15:18:40;9.20;;;1.77;;
7899;SDS011;3995;50.856;4.404;2022-07-29T15:21:08;3.60;;;1.80;;
7899;SDS011;3995;50.856;4.404;2022-07-29T15:23:35;4.70;;;1.73;;
7899;SDS011;3995;50.856;4.404;2022-07-29T15:26:03;3.67;;;1.40;;
7899;SDS011;3995;50.856;4.404;2022-07-29T15:28:31;6.90;;;2.07;;
7899;SDS011;3995;50.856;4.404;2022-07-29T15:30:58;2.73;;;1.63;;
7899;SDS011;3995;50.856;4.404;2022-07-29T15:33:25;4.10;;;1.47;;
7899;SDS011;3995;50.856;4.404;2022-07-29T15:35:53;2.83;;;2.07;;
7899;SDS011;3995;50.856;4.404;2022-07-29T15:38:23;3.57;;;1.90;;
7899;SDS011;3995;50.856;4.404;2022-07-29T15:40:50;7.80;;;2.20;;
7899;SDS011;3995;50.856;4.404;2022-07-29T15:43:17;7.50;;;2.03;;
7899;SDS011;3995;50.856;4.404;2022-07-29T15:45:44;6.00;;;1.83;;
7899;SDS011;3995;50.856;4.404;2022-07-29T15:48:31;5.63;;;2.37;;